Time;durP1;ratioP1;P1;durP2;ratioP2;P2;SDS_P1;SDS_P2;PMS_P1;PMS_P2;Temp;Humidity;BMP_temperature;BMP_pressure;BME280_temperature;BME280_humidity;BME280_pressure;Samples;Min_cycle;Max_cycle;Signal;HPM_P1;HPM_P2
2022/03/19 00:01:28;;;;;;;69.28;31.00;;;;;;;;;;5077557;28;20016;-41
2022/03/19 00:03:53;;;;;;;72.18;31.30;;;;;;;;;;5095658;28;20108;-41
2022/03/19 00:06:19;;;;;;;69.55;30.63;;;;;;;;;;5095502;28;20024;-41
2022/03/19 00:08:45;;;;;;;62.03;30.10;;;;;;;;;;5095285;28;20402;-40
2022/03/19 00:11:11;;;;;;;73.18;31.27;;;;;;;;;;5095700;28;20046;-40
2022/03/19 00:13:36;;;;;;;81.63;32.22;;;;;;;;;;5095428;28;20056;-41
2022/03/19 00:16:01;;;;;;;70.15;31.88;;;;;;;;;;5095352;28;20035;-41
2022/03/19 00:18:27;;;;;;;69.75;31.67;;;;;;;;;;5077206;28;20024;-40
2022/03/19 00:20:53;;;;;;;64.78;31.80;;;;;;;;;;5095197;28;20070;-41
2022/03/19 00:23:18;;;;;;;70.72;30.67;;;;;;;;;;5095131;28;20500;-40
2022/03/19 00:25:43;;;;;;;67.10;32.28;;;;;;;;;;5095212;28;20028;-41
2022/03/19 00:28:09;;;;;;;74.85;30.63;;;;;;;;;;5095376;28;20027;-41
2022/03/19 00:30:34;;;;;;;69.45;30.42;;;;;;;;;;5095135;28;20475;-41
2022/03/19 00:32:59;;;;;;;67.80;29.23;;;;;;;;;;5094790;28;20052;-41
2022/03/19 00:35:24;;;;;;;64.53;29.38;;;;;;;;;;5094973;28;20028;-41
2022/03/19 00:37:51;;;;;;;58.33;28.10;;;;;;;;;;5076661;28;20055;-42
2022/03/19 00:40:17;;;;;;;64.22;29.25;;;;;;;;;;5094944;28;20051;-42
2022/03/19 00:42:43;;;;;;;68.65;28.83;;;;;;;;;;5076808;28;20539;-40
2022/03/19 00:45:09;;;;;;;62.30;28.40;;;;;;;;;;5094883;28;20098;-40
2022/03/19 00:47:35;;;;;;;72.70;29.92;;;;;;;;;;5076692;28;20020;-41
2022/03/19 00:50:00;;;;;;;72.20;30.48;;;;;;;;;;5094758;28;20485;-40
2022/03/19 00:52:26;;;;;;;70.03;31.33;;;;;;;;;;5094702;28;20358;-40
2022/03/19 00:54:51;;;;;;;77.75;33.13;;;;;;;;;;5094720;28;20024;-41
2022/03/19 00:57:16;;;;;;;80.40;32.08;;;;;;;;;;5094689;28;20078;-41
2022/03/19 00:59:41;;;;;;;74.75;33.50;;;;;;;;;;5094755;28;20084;-40
2022/03/19 01:02:07;;;;;;;72.28;33.15;;;;;;;;;;5076386;28;20020;-40
2022/03/19 01:04:33;;;;;;;79.50;33.35;;;;;;;;;;5094456;28;20020;-41
2022/03/19 01:06:58;;;;;;;78.22;32.65;;;;;;;;;;5094282;28;20471;-42
2022/03/19 01:09:23;;;;;;;85.97;33.95;;;;;;;;;;5094249;28;20016;-42
2022/03/19 01:11:49;;;;;;;79.10;32.53;;;;;;;;;;5094515;28;20024;-40
2022/03/19 01:14:14;;;;;;;79.35;33.47;;;;;;;;;;5094367;28;20152;-40
2022/03/19 01:16:39;;;;;;;81.50;34.78;;;;;;;;;;5094221;28;20032;-40
2022/03/19 01:19:05;;;;;;;74.82;31.75;;;;;;;;;;5094234;28;20027;-41
2022/03/19 01:21:30;;;;;;;82.03;32.67;;;;;;;;;;5075929;28;20016;-41
2022/03/19 01:23:55;;;;;;;71.95;34.22;;;;;;;;;;5075630;28;20390;-40
2022/03/19 01:26:21;;;;;;;76.47;32.50;;;;;;;;;;5094053;28;20028;-42
2022/03/19 01:28:46;;;;;;;78.88;32.78;;;;;;;;;;5094041;28;20052;-40
2022/03/19 01:31:11;;;;;;;80.00;33.83;;;;;;;;;;5093789;28;20062;-41
2022/03/19 01:33:37;;;;;;;70.18;31.98;;;;;;;;;;5094077;28;20044;-40
2022/03/19 01:36:03;;;;;;;76.72;32.70;;;;;;;;;;5075650;28;20028;-41
2022/03/19 01:38:28;;;;;;;74.90;33.17;;;;;;;;;;5093705;28;20487;-41
2022/03/19 01:40:53;;;;;;;84.63;36.08;;;;;;;;;;5093704;28;20370;-41
2022/03/19 01:43:19;;;;;;;90.30;38.03;;;;;;;;;;5093927;28;20049;-40
2022/03/19 01:45:44;;;;;;;81.05;36.05;;;;;;;;;;5093677;28;20114;-41
2022/03/19 01:48:09;;;;;;;84.30;36.58;;;;;;;;;;5093629;28;20481;-40
2022/03/19 01:50:34;;;;;;;87.38;38.28;;;;;;;;;;5093899;28;20016;-40
2022/03/19 01:53:00;;;;;;;93.70;40.05;;;;;;;;;;5075246;28;20074;-41
2022/03/19 01:55:27;;;;;;;93.88;39.67;;;;;;;;;;5093691;28;20020;-41
2022/03/19 01:57:52;;;;;;;105.35;43.75;;;;;;;;;;5093285;28;20440;-41
2022/03/19 02:00:19;;;;;;;107.25;45.10;;;;;;;;;;5093567;28;20016;-41
2022/03/19 02:02:45;;;;;;;108.05;45.92;;;;;;;;;;5093364;28;20496;-41
2022/03/19 02:05:12;;;;;;;99.13;42.90;;;;;;;;;;5093369;28;20463;-41
2022/03/19 02:07:38;;;;;;;105.70;45.28;;;;;;;;;;5093282;28;20020;-43
2022/03/19 02:10:03;;;;;;;103.32;42.65;;;;;;;;;;5093419;28;20020;-40
2022/03/19 02:12:29;;;;;;;98.22;43.53;;;;;;;;;;5092675;28;20023;-40
2022/03/19 02:14:54;;;;;;;101.70;42.00;;;;;;;;;;5093363;28;20024;-41
2022/03/19 02:17:20;;;;;;;105.35;42.92;;;;;;;;;;5093229;28;20363;-40
2022/03/19 02:19:53;;;;;;;91.15;42.03;;;;;;;;;;5075037;28;20031;-40
2022/03/19 02:22:18;;;;;;;103.65;42.58;;;;;;;;;;5074820;28;20041;-40
2022/03/19 02:27:28;;;;;;;101.50;41.13;;;;;;;;;;5093240;28;20081;-40
2022/03/19 02:29:53;;;;;;;99.22;39.78;;;;;;;;;;5092956;28;20103;-40
2022/03/19 02:32:19;;;;;;;98.40;42.17;;;;;;;;;;5093007;28;20054;-40
2022/03/19 02:34:44;;;;;;;103.53;41.70;;;;;;;;;;5092803;28;20019;-41
2022/03/19 02:37:09;;;;;;;96.85;38.30;;;;;;;;;;5092742;28;20039;-40
2022/03/19 02:39:35;;;;;;;94.43;37.42;;;;;;;;;;5093174;28;20442;-40
2022/03/19 02:42:02;;;;;;;99.18;40.80;;;;;;;;;;5074925;28;20459;-40
2022/03/19 02:44:28;;;;;;;91.05;38.75;;;;;;;;;;5092941;28;20054;-40
2022/03/19 02:46:54;;;;;;;94.93;39.80;;;;;;;;;;5092848;28;20044;-40
2022/03/19 02:49:21;;;;;;;101.40;40.67;;;;;;;;;;5092811;28;20027;-41
2022/03/19 02:51:47;;;;;;;89.03;39.08;;;;;;;;;;5092759;28;20012;-40
2022/03/19 02:54:15;;;;;;;94.88;37.47;;;;;;;;;;5092923;28;20066;-40
2022/03/19 02:56:41;;;;;;;95.28;36.92;;;;;;;;;;5092718;28;20040;-40
2022/03/19 02:59:12;;;;;;;93.07;37.58;;;;;;;;;;5092802;28;20035;-40
2022/03/19 03:01:38;;;;;;;89.35;36.00;;;;;;;;;;5074864;28;20119;-40
2022/03/19 03:04:03;;;;;;;90.22;34.83;;;;;;;;;;5092618;28;20095;-41
2022/03/19 03:06:33;;;;;;;93.70;37.72;;;;;;;;;;5092530;28;20055;-40
2022/03/19 03:08:58;;;;;;;90.32;36.92;;;;;;;;;;5092791;28;20082;-40
2022/03/19 03:11:23;;;;;;;89.05;37.25;;;;;;;;;;5092781;28;20454;-40
2022/03/19 03:13:48;;;;;;;79.55;35.83;;;;;;;;;;5092742;28;20031;-40
2022/03/19 03:16:14;;;;;;;86.45;35.97;;;;;;;;;;5074529;28;20450;-40
2022/03/19 03:18:39;;;;;;;78.93;33.92;;;;;;;;;;5092476;28;20379;-40
2022/03/19 03:21:04;;;;;;;86.65;35.42;;;;;;;;;;5092280;28;20020;-40
2022/03/19 03:23:31;;;;;;;84.65;35.20;;;;;;;;;;5092749;28;20082;-40
2022/03/19 03:25:57;;;;;;;87.38;36.10;;;;;;;;;;5077569;28;20020;-39
2022/03/19 03:28:22;;;;;;;91.43;36.42;;;;;;;;;;5096357;28;20459;-40
2022/03/19 03:30:47;;;;;;;74.95;33.55;;;;;;;;;;5096322;28;20432;-41
2022/03/19 03:33:13;;;;;;;81.80;33.20;;;;;;;;;;5095929;28;20064;-41
2022/03/19 03:35:38;;;;;;;82.43;32.42;;;;;;;;;;5077754;28;20024;-40
2022/03/19 03:38:03;;;;;;;74.38;34.15;;;;;;;;;;5096122;28;20102;-40
2022/03/19 03:40:29;;;;;;;76.60;31.83;;;;;;;;;;5078037;28;20027;-40
2022/03/19 03:42:54;;;;;;;72.75;32.35;;;;;;;;;;5077974;28;20028;-40
2022/03/19 03:45:20;;;;;;;76.55;31.77;;;;;;;;;;5095990;28;20022;-40
2022/03/19 03:47:46;;;;;;;73.80;31.42;;;;;;;;;;5096015;28;20051;-40
2022/03/19 03:50:11;;;;;;;80.70;31.23;;;;;;;;;;5095741;28;20181;-40
2022/03/19 03:52:36;;;;;;;74.78;30.92;;;;;;;;;;5077940;28;20016;-40
2022/03/19 03:55:03;;;;;;;68.18;30.42;;;;;;;;;;5096144;28;20526;-40
2022/03/19 03:57:29;;;;;;;77.03;33.45;;;;;;;;;;5095731;28;20031;-40
2022/03/19 03:59:54;;;;;;;71.90;32.80;;;;;;;;;;5077614;28;20451;-40
2022/03/19 04:02:19;;;;;;;76.03;30.58;;;;;;;;;;5095742;28;20042;-40
2022/03/19 04:04:44;;;;;;;64.78;29.25;;;;;;;;;;5095486;28;20058;-40
2022/03/19 04:07:10;;;;;;;70.38;29.25;;;;;;;;;;5095778;28;20051;-40
2022/03/19 04:09:35;;;;;;;74.07;30.40;;;;;;;;;;5095799;28;20016;-40
2022/03/19 04:12:03;;;;;;;69.18;31.10;;;;;;;;;;5095796;28;20426;-41
2022/03/19 04:14:28;;;;;;;77.90;30.33;;;;;;;;;;5095891;28;20046;-40
2022/03/19 04:16:53;;;;;;;75.15;29.33;;;;;;;;;;5095347;28;20028;-41
2022/03/19 04:19:19;;;;;;;64.10;28.25;;;;;;;;;;5095228;28;20023;-43
2022/03/19 04:21:44;;;;;;;64.60;29.00;;;;;;;;;;5095214;28;20030;-41
2022/03/19 04:24:09;;;;;;;64.28;29.10;;;;;;;;;;5095550;28;20039;-41
2022/03/19 04:26:34;;;;;;;63.28;29.48;;;;;;;;;;5095144;28;20028;-41
2022/03/19 04:29:00;;;;;;;71.57;29.45;;;;;;;;;;5095150;28;20055;-41
2022/03/19 04:31:25;;;;;;;76.20;30.00;;;;;;;;;;5095372;28;20477;-42
2022/03/19 04:33:50;;;;;;;58.13;27.23;;;;;;;;;;5095001;28;20083;-41
2022/03/19 04:36:32;;;;;;;67.63;27.50;;;;;;;;;;5076216;28;20101;-41
2022/03/19 04:38:58;;;;;;;62.10;27.15;;;;;;;;;;5095138;28;20027;-41
2022/03/19 04:41:23;;;;;;;62.28;26.98;;;;;;;;;;5095028;28;20386;-41
2022/03/19 04:43:49;;;;;;;61.13;26.02;;;;;;;;;;5094839;28;20103;-41
2022/03/19 04:46:14;;;;;;;60.30;26.38;;;;;;;;;;5094869;28;20042;-41
2022/03/19 04:48:42;;;;;;;72.32;29.48;;;;;;;;;;5094743;28;20364;-42
2022/03/19 04:51:08;;;;;;;69.35;29.20;;;;;;;;;;5094963;28;20020;-42
2022/03/19 04:53:33;;;;;;;62.33;27.25;;;;;;;;;;5094630;28;20099;-41
2022/03/19 04:55:58;;;;;;;69.65;30.00;;;;;;;;;;5094689;28;20032;-41
2022/03/19 04:58:23;;;;;;;70.63;26.50;;;;;;;;;;5094602;28;20024;-42
2022/03/19 05:00:49;;;;;;;68.03;28.20;;;;;;;;;;5094816;28;20417;-41
2022/03/19 05:03:14;;;;;;;61.63;27.92;;;;;;;;;;5094369;28;20028;-42
2022/03/19 05:05:39;;;;;;;70.28;28.65;;;;;;;;;;5094653;28;20019;-41
2022/03/19 05:08:06;;;;;;;77.30;30.40;;;;;;;;;;5094494;28;20073;-42
2022/03/19 05:13:16;;;;;;;67.35;28.90;;;;;;;;;;5094472;28;20145;-42
2022/03/19 05:15:41;;;;;;;73.68;30.25;;;;;;;;;;5094176;28;20149;-42
2022/03/19 05:18:07;;;;;;;66.20;28.80;;;;;;;;;;5094006;28;20095;-42
2022/03/19 05:20:32;;;;;;;68.85;29.73;;;;;;;;;;5094278;28;20028;-42
2022/03/19 05:22:58;;;;;;;69.35;29.25;;;;;;;;;;5094334;28;20020;-42
2022/03/19 05:25:23;;;;;;;73.55;28.77;;;;;;;;;;5093763;28;20012;-42
2022/03/19 05:27:48;;;;;;;74.03;29.50;;;;;;;;;;5094171;28;20122;-41
2022/03/19 05:30:14;;;;;;;64.32;29.40;;;;;;;;;;5075881;28;20089;-42
2022/03/19 05:32:39;;;;;;;65.75;28.92;;;;;;;;;;5093819;28;20130;-42
2022/03/19 05:35:05;;;;;;;62.22;27.02;;;;;;;;;;5093989;28;20012;-41
2022/03/19 05:37:30;;;;;;;62.78;30.23;;;;;;;;;;5075673;28;20038;-41
2022/03/19 05:39:56;;;;;;;63.50;27.67;;;;;;;;;;5093933;28;20442;-40
2022/03/19 05:42:21;;;;;;;65.65;29.10;;;;;;;;;;5093835;28;20082;-41
2022/03/19 05:44:47;;;;;;;60.85;28.23;;;;;;;;;;5075439;28;20024;-40
2022/03/19 05:47:12;;;;;;;68.18;29.60;;;;;;;;;;5074511;28;20073;-41
2022/03/19 05:49:38;;;;;;;66.25;31.20;;;;;;;;;;5075566;28;20050;-40
2022/03/19 05:52:03;;;;;;;66.80;28.60;;;;;;;;;;5093886;28;20012;-41
2022/03/19 05:54:29;;;;;;;64.10;28.40;;;;;;;;;;5093569;28;20020;-40
2022/03/19 05:56:54;;;;;;;57.90;28.35;;;;;;;;;;5093438;28;20035;-40
2022/03/19 05:59:20;;;;;;;67.35;29.45;;;;;;;;;;5093609;28;20027;-40
2022/03/19 06:01:45;;;;;;;57.90;28.80;;;;;;;;;;5093312;28;20451;-41
2022/03/19 06:04:11;;;;;;;61.72;28.38;;;;;;;;;;5093381;28;20106;-40
2022/03/19 06:06:36;;;;;;;58.20;29.33;;;;;;;;;;5075245;28;20355;-40
2022/03/19 06:09:02;;;;;;;60.67;29.23;;;;;;;;;;5075394;28;20028;-40
2022/03/19 06:11:27;;;;;;;59.25;29.98;;;;;;;;;;5093174;28;20030;-41
2022/03/19 06:13:52;;;;;;;58.63;30.58;;;;;;;;;;5093126;28;20062;-41
2022/03/19 06:16:19;;;;;;;61.58;30.13;;;;;;;;;;5093224;28;20043;-41
2022/03/19 06:18:50;;;;;;;58.05;30.80;;;;;;;;;;5093051;28;20028;-41
2022/03/19 06:21:16;;;;;;;61.13;30.63;;;;;;;;;;5092973;28;20077;-41
2022/03/19 06:23:41;;;;;;;65.40;29.70;;;;;;;;;;5075159;28;20020;-40
2022/03/19 06:26:06;;;;;;;67.63;33.05;;;;;;;;;;5074927;28;20072;-41
2022/03/19 06:28:32;;;;;;;63.15;30.10;;;;;;;;;;5092996;28;20055;-40
2022/03/19 06:30:57;;;;;;;65.90;32.22;;;;;;;;;;5093087;28;20020;-41
2022/03/19 06:33:22;;;;;;;71.32;32.00;;;;;;;;;;5093003;28;20083;-40
2022/03/19 06:38:31;;;;;;;78.93;37.42;;;;;;;;;;5093328;28;20031;-40
2022/03/19 06:40:59;;;;;;;72.93;35.30;;;;;;;;;;5074888;28;20020;-41
2022/03/19 06:43:24;;;;;;;66.10;34.25;;;;;;;;;;5093029;28;20023;-40
2022/03/19 06:45:50;;;;;;;65.72;34.85;;;;;;;;;;5092683;28;20025;-40
2022/03/19 06:48:15;;;;;;;75.55;37.47;;;;;;;;;;5093325;28;20051;-41
2022/03/19 06:50:40;;;;;;;74.50;37.72;;;;;;;;;;5075040;28;20016;-41
2022/03/19 06:53:06;;;;;;;75.45;37.45;;;;;;;;;;5092985;28;20352;-41
2022/03/19 06:55:32;;;;;;;69.78;36.97;;;;;;;;;;5092786;28;20020;-41
2022/03/19 06:57:58;;;;;;;70.93;37.80;;;;;;;;;;5074647;28;20039;-41
2022/03/19 07:00:23;;;;;;;77.65;37.67;;;;;;;;;;5096959;28;20028;-42
2022/03/19 07:02:49;;;;;;;66.53;36.53;;;;;;;;;;5096831;28;20099;-41
2022/03/19 07:05:19;;;;;;;62.50;34.75;;;;;;;;;;5096895;28;20061;-41
2022/03/19 07:07:44;;;;;;;58.88;32.65;;;;;;;;;;5096880;28;20038;-41
2022/03/19 07:10:10;;;;;;;54.35;31.58;;;;;;;;;;5096550;28;20016;-41
2022/03/19 07:12:44;;;;;;;60.65;32.53;;;;;;;;;;5096691;28;20444;-41
2022/03/19 07:15:16;;;;;;;61.88;33.65;;;;;;;;;;5078200;28;20050;-41
2022/03/19 07:17:43;;;;;;;61.42;33.38;;;;;;;;;;5078494;28;20028;-41
2022/03/19 07:20:09;;;;;;;76.43;37.22;;;;;;;;;;5096521;28;20025;-40
2022/03/19 07:22:53;;;;;;;60.38;34.83;;;;;;;;;;5096257;28;20024;-40
2022/03/19 07:25:20;;;;;;;76.32;39.67;;;;;;;;;;5096347;28;20570;-41
2022/03/19 07:27:46;;;;;;;61.30;34.20;;;;;;;;;;5096252;28;20023;-41
2022/03/19 07:30:11;;;;;;;63.55;32.00;;;;;;;;;;5096471;28;20065;-40
2022/03/19 07:32:37;;;;;;;57.97;31.20;;;;;;;;;;5096002;28;20044;-40
2022/03/19 07:35:03;;;;;;;50.70;29.48;;;;;;;;;;5096336;28;20028;-41
2022/03/19 07:37:31;;;;;;;47.30;27.10;;;;;;;;;;5096037;28;20036;-41
2022/03/19 07:39:57;;;;;;;50.35;27.90;;;;;;;;;;5096059;28;20524;-41
2022/03/19 07:42:22;;;;;;;49.78;27.25;;;;;;;;;;5096335;28;20008;-41
2022/03/19 07:44:48;;;;;;;52.58;26.45;;;;;;;;;;5077892;28;20064;-41
2022/03/19 07:47:14;;;;;;;45.67;25.75;;;;;;;;;;5095990;28;20028;-41
2022/03/19 07:49:40;;;;;;;43.13;25.80;;;;;;;;;;5096079;28;20012;-41
2022/03/19 07:52:06;;;;;;;48.00;25.75;;;;;;;;;;5095941;28;20028;-41
2022/03/19 07:54:32;;;;;;;44.05;26.95;;;;;;;;;;5095861;28;20035;-41
2022/03/19 07:56:57;;;;;;;46.35;27.10;;;;;;;;;;5095562;28;20069;-41
2022/03/19 07:59:23;;;;;;;44.65;26.05;;;;;;;;;;5095936;28;20056;-43
2022/03/19 08:01:49;;;;;;;47.38;27.52;;;;;;;;;;5095808;28;20460;-41
2022/03/19 08:04:14;;;;;;;45.60;26.58;;;;;;;;;;5095744;28;20352;-42
2022/03/19 08:06:40;;;;;;;44.17;26.85;;;;;;;;;;5095685;28;20027;-41
2022/03/19 08:09:06;;;;;;;44.25;25.92;;;;;;;;;;5095609;28;20537;-41
2022/03/19 08:11:31;;;;;;;40.13;26.50;;;;;;;;;;5095317;28;20016;-40
2022/03/19 08:13:57;;;;;;;40.53;26.27;;;;;;;;;;5095667;28;20030;-41
2022/03/19 08:16:24;;;;;;;38.85;25.38;;;;;;;;;;5095351;28;20032;-41
2022/03/19 08:18:49;;;;;;;44.55;27.02;;;;;;;;;;5095627;28;20050;-40
2022/03/19 08:21:15;;;;;;;42.22;25.73;;;;;;;;;;5095091;28;20367;-40
2022/03/19 08:23:40;;;;;;;44.58;26.52;;;;;;;;;;5095235;28;20458;-40
2022/03/19 08:26:06;;;;;;;46.83;26.45;;;;;;;;;;5094896;28;20042;-40
2022/03/19 08:28:31;;;;;;;43.20;25.83;;;;;;;;;;5095404;28;20024;-40
2022/03/19 08:30:58;;;;;;;42.47;26.05;;;;;;;;;;5095130;28;20020;-40
2022/03/19 08:33:23;;;;;;;46.05;27.60;;;;;;;;;;5087682;28;20048;-40
2022/03/19 08:35:48;;;;;;;42.40;25.88;;;;;;;;;;5095018;28;20020;-41
2022/03/19 08:40:57;;;;;;;46.03;25.40;;;;;;;;;;5095104;28;20043;-41
2022/03/19 08:43:23;;;;;;;40.28;24.75;;;;;;;;;;5095358;28;20024;-42
2022/03/19 08:45:48;;;;;;;43.92;25.20;;;;;;;;;;5094995;28;20020;-40
2022/03/19 08:48:13;;;;;;;40.45;25.83;;;;;;;;;;5093509;28;20059;-40
2022/03/19 08:50:39;;;;;;;36.60;24.02;;;;;;;;;;5094889;28;20020;-41
2022/03/19 08:53:04;;;;;;;39.03;23.15;;;;;;;;;;5093361;28;20016;-41
2022/03/19 08:55:29;;;;;;;36.67;22.85;;;;;;;;;;5094505;28;20073;-41
2022/03/19 08:57:55;;;;;;;43.50;25.75;;;;;;;;;;5093313;28;20036;-41
2022/03/19 09:00:20;;;;;;;38.15;22.73;;;;;;;;;;5095242;28;20028;-41
2022/03/19 09:02:45;;;;;;;40.28;22.50;;;;;;;;;;5094760;28;20024;-41
2022/03/19 09:05:11;;;;;;;33.50;21.25;;;;;;;;;;5094626;28;20102;-40
2022/03/19 09:07:37;;;;;;;35.55;21.63;;;;;;;;;;5093248;28;20029;-41
2022/03/19 09:10:03;;;;;;;35.10;21.30;;;;;;;;;;5094437;28;20492;-40
2022/03/19 09:12:28;;;;;;;32.05;21.40;;;;;;;;;;5094158;28;20249;-41
2022/03/19 09:14:53;;;;;;;36.00;20.83;;;;;;;;;;5094803;28;20020;-41
2022/03/19 09:17:19;;;;;;;32.50;20.20;;;;;;;;;;5094406;28;20032;-41
2022/03/19 09:19:44;;;;;;;33.75;20.23;;;;;;;;;;5094154;28;20043;-41
2022/03/19 09:22:10;;;;;;;33.00;21.08;;;;;;;;;;5094191;28;20473;-40
2022/03/19 09:24:35;;;;;;;32.47;20.83;;;;;;;;;;5094192;28;20012;-41
2022/03/19 09:27:00;;;;;;;35.30;20.17;;;;;;;;;;5093957;28;20020;-40
2022/03/19 09:29:26;;;;;;;32.03;21.02;;;;;;;;;;5093009;28;20044;-40
2022/03/19 09:31:52;;;;;;;29.48;17.73;;;;;;;;;;5094228;28;20096;-40
2022/03/19 09:34:17;;;;;;;30.00;18.75;;;;;;;;;;5094204;28;20352;-40
2022/03/19 09:36:46;;;;;;;30.08;18.65;;;;;;;;;;5093834;28;20024;-40
2022/03/19 09:39:12;;;;;;;30.65;18.27;;;;;;;;;;5093831;28;20023;-43
2022/03/19 09:41:37;;;;;;;31.73;19.73;;;;;;;;;;5093678;28;20024;-41
2022/03/19 09:44:02;;;;;;;31.67;19.30;;;;;;;;;;5093661;28;20027;-41
2022/03/19 09:46:28;;;;;;;34.60;19.58;;;;;;;;;;5093885;28;20024;-41
2022/03/19 09:48:54;;;;;;;26.88;18.42;;;;;;;;;;5093641;28;20027;-41
2022/03/19 09:51:19;;;;;;;34.85;19.35;;;;;;;;;;5093713;28;20016;-40
2022/03/19 09:53:46;;;;;;;26.38;16.38;;;;;;;;;;5093781;28;20443;-40
2022/03/19 09:56:11;;;;;;;26.25;17.15;;;;;;;;;;5093327;28;20036;-40
2022/03/19 09:58:37;;;;;;;32.20;17.85;;;;;;;;;;5093852;28;20020;-40
2022/03/19 10:01:03;;;;;;;27.20;17.10;;;;;;;;;;5075351;28;20378;-40
2022/03/19 10:03:28;;;;;;;24.98;16.20;;;;;;;;;;5093388;28;20031;-41
2022/03/19 10:08:39;;;;;;;28.50;17.20;;;;;;;;;;5093236;28;20443;-41
2022/03/19 10:11:15;;;;;;;31.20;16.80;;;;;;;;;;5093282;28;20466;-42
2022/03/19 10:13:47;;;;;;;29.48;18.08;;;;;;;;;;5093338;28;20016;-41
2022/03/19 10:16:18;;;;;;;30.40;17.63;;;;;;;;;;5093255;28;20046;-41
2022/03/19 10:18:43;;;;;;;25.70;17.13;;;;;;;;;;5092945;28;20141;-40
2022/03/19 10:21:16;;;;;;;28.23;17.30;;;;;;;;;;5093057;28;20055;-40
2022/03/19 10:23:42;;;;;;;30.48;17.77;;;;;;;;;;5093181;28;20788;-40
2022/03/19 10:26:08;;;;;;;30.67;18.20;;;;;;;;;;5093165;28;20034;-41
2022/03/19 10:28:34;;;;;;;28.75;17.80;;;;;;;;;;5093215;28;20028;-41
2022/03/19 10:30:59;;;;;;;31.15;18.30;;;;;;;;;;5093067;28;20095;-41
2022/03/19 10:33:30;;;;;;;27.80;16.92;;;;;;;;;;5092719;28;20141;-41
2022/03/19 10:36:06;;;;;;;28.05;17.40;;;;;;;;;;5093079;28;20146;-41
2022/03/19 10:38:39;;;;;;;26.50;16.48;;;;;;;;;;5093028;28;20024;-41
2022/03/19 10:41:04;;;;;;;28.48;17.17;;;;;;;;;;5092834;28;20353;-41
2022/03/19 10:43:32;;;;;;;24.73;16.48;;;;;;;;;;5093012;28;20024;-41
2022/03/19 10:45:58;;;;;;;25.38;16.80;;;;;;;;;;5092845;28;20020;-41
2022/03/19 10:48:25;;;;;;;25.45;16.70;;;;;;;;;;5092461;28;20116;-41
2022/03/19 10:50:51;;;;;;;29.88;18.30;;;;;;;;;;5092967;28;20091;-41
2022/03/19 10:53:17;;;;;;;36.83;17.63;;;;;;;;;;5074817;28;20044;-40
2022/03/19 10:55:42;;;;;;;31.52;17.48;;;;;;;;;;5092996;28;20055;-41
2022/03/19 10:58:08;;;;;;;23.75;15.57;;;;;;;;;;5092921;28;20430;-42
2022/03/19 11:00:35;;;;;;;26.85;15.60;;;;;;;;;;5092700;28;20016;-42
2022/03/19 11:03:03;;;;;;;26.08;16.05;;;;;;;;;;5092518;28;20024;-40
2022/03/19 11:05:28;;;;;;;22.52;15.05;;;;;;;;;;5074360;28;20073;-44
2022/03/19 11:07:54;;;;;;;26.63;16.20;;;;;;;;;;5074846;28;20016;-42
2022/03/19 11:10:21;;;;;;;25.58;15.13;;;;;;;;;;5092741;28;20447;-41
2022/03/19 11:12:50;;;;;;;25.60;14.93;;;;;;;;;;5092942;28;20024;-41
2022/03/19 11:15:17;;;;;;;21.60;13.85;;;;;;;;;;5092674;28;20103;-41
2022/03/19 11:17:44;;;;;;;26.13;14.95;;;;;;;;;;5092298;28;20086;-41
2022/03/19 11:20:11;;;;;;;26.05;15.02;;;;;;;;;;5092952;28;20077;-40
2022/03/19 11:22:41;;;;;;;25.25;15.65;;;;;;;;;;5092804;28;20049;-41
2022/03/19 11:25:20;;;;;;;23.35;15.90;;;;;;;;;;5092594;28;20081;-40
2022/03/19 11:27:48;;;;;;;23.42;15.40;;;;;;;;;;5092485;28;20020;-42
2022/03/19 11:30:26;;;;;;;26.75;14.07;;;;;;;;;;5074008;28;20484;-40
2022/03/19 11:33:06;;;;;;;22.38;14.27;;;;;;;;;;5092623;28;20055;-41
2022/03/19 11:35:36;;;;;;;23.35;13.93;;;;;;;;;;5092420;28;20031;-41
2022/03/19 11:38:03;;;;;;;25.60;14.48;;;;;;;;;;5092393;28;20028;-41
2022/03/19 11:40:36;;;;;;;30.30;12.43;;;;;;;;;;5091969;28;20016;-41
2022/03/19 11:43:04;;;;;;;26.08;13.93;;;;;;;;;;5092488;28;20020;-41
2022/03/19 11:45:56;;;;;;;26.80;15.05;;;;;;;;;;5093349;28;20023;-43
2022/03/19 11:48:50;;;;;;;23.05;13.63;;;;;;;;;;5091023;28;20611;-41
2022/03/19 11:51:16;;;;;;;22.75;13.70;;;;;;;;;;5096066;28;20055;-41
2022/03/19 11:53:53;;;;;;;20.33;13.10;;;;;;;;;;5096053;28;20035;-41
2022/03/19 11:56:19;;;;;;;20.98;12.68;;;;;;;;;;5095876;28;20028;-41
2022/03/19 11:58:45;;;;;;;20.60;12.93;;;;;;;;;;5095810;28;20020;-41
2022/03/19 12:01:10;;;;;;;20.27;11.60;;;;;;;;;;5095734;28;20020;-41
2022/03/19 12:03:55;;;;;;;24.98;13.05;;;;;;;;;;5095571;28;20020;-40
2022/03/19 12:06:28;;;;;;;19.23;12.70;;;;;;;;;;5095312;28;20039;-41
2022/03/19 12:08:53;;;;;;;21.30;12.93;;;;;;;;;;5095535;28;20020;-40
2022/03/19 12:11:20;;;;;;;22.00;11.57;;;;;;;;;;5095503;28;20020;-41
2022/03/19 12:13:47;;;;;;;20.50;12.10;;;;;;;;;;5095492;28;20073;-41
2022/03/19 12:16:13;;;;;;;20.02;11.52;;;;;;;;;;5095063;28;20040;-40
2022/03/19 12:18:38;;;;;;;21.17;12.50;;;;;;;;;;5077340;28;20115;-41
2022/03/19 12:21:09;;;;;;;19.63;10.87;;;;;;;;;;5095557;28;20016;-41
2022/03/19 12:23:38;;;;;;;18.15;11.57;;;;;;;;;;5095276;28;20252;-41
2022/03/19 12:26:04;;;;;;;25.43;12.77;;;;;;;;;;5095263;28;20035;-41
2022/03/19 12:28:30;;;;;;;19.20;10.73;;;;;;;;;;5095023;28;20020;-41
2022/03/19 12:31:16;;;;;;;20.90;12.02;;;;;;;;;;5094977;28;20043;-40
2022/03/19 12:33:43;;;;;;;17.67;10.00;;;;;;;;;;5094106;28;20048;-41
2022/03/19 12:36:11;;;;;;;17.23;9.48;;;;;;;;;;5095171;28;20047;-40
2022/03/19 12:38:37;;;;;;;19.98;10.48;;;;;;;;;;5095514;28;20020;-41
2022/03/19 12:43:45;;;;;;;18.88;10.27;;;;;;;;;;5094934;28;20070;-41
2022/03/19 12:46:11;;;;;;;18.13;9.90;;;;;;;;;;5076825;28;20020;-41
2022/03/19 12:48:39;;;;;;;19.02;10.60;;;;;;;;;;5095211;28;20031;-42
2022/03/19 12:51:05;;;;;;;17.53;9.23;;;;;;;;;;5094766;28;20028;-41
2022/03/19 12:53:30;;;;;;;17.98;9.13;;;;;;;;;;5094730;28;20069;-41
2022/03/19 12:56:15;;;;;;;18.97;10.73;;;;;;;;;;5094111;28;20030;-41
2022/03/19 12:58:45;;;;;;;17.02;9.75;;;;;;;;;;5093653;28;20260;-41
2022/03/19 13:01:11;;;;;;;15.82;9.65;;;;;;;;;;5094730;28;20019;-41
2022/03/19 13:03:36;;;;;;;18.17;9.40;;;;;;;;;;5094675;28;20103;-42
2022/03/19 13:06:01;;;;;;;16.30;8.77;;;;;;;;;;5094478;28;20066;-41
2022/03/19 13:08:27;;;;;;;22.92;10.32;;;;;;;;;;5094279;28;20028;-41
2022/03/19 13:10:53;;;;;;;15.77;8.68;;;;;;;;;;5094536;28;20016;-41
2022/03/19 13:13:19;;;;;;;17.20;9.50;;;;;;;;;;5076469;28;20020;-41
2022/03/19 13:15:52;;;;;;;15.05;9.85;;;;;;;;;;5094513;28;20099;-41
2022/03/19 13:18:27;;;;;;;16.45;9.15;;;;;;;;;;5094310;28;20364;-42
2022/03/19 13:21:00;;;;;;;16.83;9.95;;;;;;;;;;5094021;28;20535;-42
2022/03/19 13:23:25;;;;;;;14.63;8.95;;;;;;;;;;5094387;28;20024;-41
2022/03/19 13:25:51;;;;;;;17.15;9.18;;;;;;;;;;5094223;28;20065;-41
2022/03/19 13:28:16;;;;;;;15.15;8.27;;;;;;;;;;5094162;28;20051;-41
2022/03/19 13:30:46;;;;;;;12.60;8.27;;;;;;;;;;5075975;28;20020;-41
2022/03/19 13:33:15;;;;;;;15.95;8.40;;;;;;;;;;5083032;28;20078;-41
2022/03/19 13:35:47;;;;;;;13.80;9.05;;;;;;;;;;5093890;28;20020;-41
2022/03/19 13:38:12;;;;;;;12.05;7.63;;;;;;;;;;5092691;28;20044;-41
2022/03/19 13:40:38;;;;;;;22.65;8.63;;;;;;;;;;5094098;28;20040;-41
2022/03/19 13:43:03;;;;;;;14.52;9.20;;;;;;;;;;5093909;28;20023;-41
2022/03/19 13:45:29;;;;;;;15.73;8.85;;;;;;;;;;5093758;28;20016;-41
2022/03/19 13:48:01;;;;;;;15.70;8.80;;;;;;;;;;5093887;28;20378;-42
2022/03/19 13:50:26;;;;;;;13.95;8.32;;;;;;;;;;5093664;28;20012;-41
2022/03/19 13:52:57;;;;;;;13.93;8.02;;;;;;;;;;5093613;28;20386;-41
2022/03/19 13:55:23;;;;;;;15.23;8.05;;;;;;;;;;5093661;28;20024;-41
2022/03/19 13:57:49;;;;;;;16.37;9.60;;;;;;;;;;5092330;28;20399;-41
2022/03/19 14:00:16;;;;;;;13.02;7.88;;;;;;;;;;5093898;28;20323;-41
2022/03/19 14:02:49;;;;;;;16.38;7.95;;;;;;;;;;5093362;28;20020;-42
2022/03/19 14:05:19;;;;;;;15.02;8.05;;;;;;;;;;5092247;28;20077;-41
2022/03/19 14:07:45;;;;;;;14.65;8.43;;;;;;;;;;5093190;28;20027;-41
2022/03/19 14:10:10;;;;;;;14.15;7.80;;;;;;;;;;5093349;28;20032;-41
2022/03/19 14:12:37;;;;;;;14.88;8.68;;;;;;;;;;5092047;28;20023;-42
2022/03/19 14:15:03;;;;;;;14.55;7.78;;;;;;;;;;5093336;28;20052;-41
2022/03/19 14:17:43;;;;;;;12.63;7.43;;;;;;;;;;5093059;28;20498;-41
2022/03/19 14:20:10;;;;;;;12.93;7.78;;;;;;;;;;5093378;28;20045;-41
2022/03/19 14:22:35;;;;;;;14.40;8.98;;;;;;;;;;5093285;28;20447;-41
2022/03/19 14:25:00;;;;;;;15.25;8.57;;;;;;;;;;5093385;28;20051;-42
2022/03/19 14:27:25;;;;;;;16.20;8.80;;;;;;;;;;5093078;28;20028;-41
2022/03/19 14:29:51;;;;;;;20.63;9.63;;;;;;;;;;5092986;28;20083;-42
2022/03/19 14:32:16;;;;;;;13.70;8.65;;;;;;;;;;5092769;28;20405;-41